TimePST,TemperatureF,Dew PointF,Humidity,Sea Level PressureIn,VisibilityMPH,Wind Direction,Wind SpeedMPH,Gust SpeedMPH,PrecipitationIn,Events,Conditions,WindDirDegrees,DateUTC
12:58 AM,55.6,50.9,84,29.87,10.0,WSW,25.3,33.4,N/A,,Overcast,240,2012-11-08 08:58:00
1:03 AM,55.4,50.0,82,29.85,10.0,WSW,25.3,33.4,N/A,,Overcast,240,2012-11-08 09:03:00
1:33 AM,53.6,50.0,88,29.84,10.0,WSW,21.9,-,N/A,,Scattered Clouds,240,2012-11-08 09:33:00
1:58 AM,53.4,48.6,84,29.86,10.0,WSW,20.7,28.8,N/A,,Clear,240,2012-11-08 09:58:00
2:58 AM,51.6,47.1,85,29.85,10.0,WSW,23.0,-,N/A,,Clear,240,2012-11-08 10:58:00
3:58 AM,49.1,44.8,85,29.87,10.0,WSW,23.0,29.9,N/A,,Clear,240,2012-11-08 11:58:00
4:58 AM,49.5,44.4,83,29.88,10.0,WSW,18.4,24.2,N/A,,Clear,250,2012-11-08 12:58:00
5:58 AM,48.9,43.7,82,29.89,10.0,SW,11.5,-,N/A,,Partly Cloudy,230,2012-11-08 13:58:00
6:58 AM,48.9,40.6,73,29.92,10.0,WSW,15.0,-,N/A,,Clear,250,2012-11-08 14:58:00
7:58 AM,51.8,39.9,64,29.94,10.0,WSW,17.3,-,N/A,,Clear,240,2012-11-08 15:58:00
8:58 AM,55.0,39.0,55,29.95,10.0,WSW,18.4,-,N/A,,Clear,250,2012-11-08 16:58:00
9:58 AM,57.7,39.6,51,29.95,10.0,WSW,20.7,25.3,N/A,,Clear,250,2012-11-08 17:58:00
10:58 AM,57.9,41.9,55,29.94,10.0,WSW,15.0,-,N/A,,Scattered Clouds,240,2012-11-08 18:58:00
12:58 PM,55.4,47.8,76,29.91,8.0,WSW,17.3,-,0.00,,Overcast,240,2012-11-08 20:58:00
12:59 PM,55.4,48.2,77,29.89,6.0,WSW,15.0,-,N/A,Rain,Light Rain,250,2012-11-08 20:59:00
1:09 PM,53.6,51.8,94,29.89,6.0,West,15.0,-,N/A,Rain,Light Rain,260,2012-11-08 21:09:00
1:24 PM,53.6,51.8,94,29.88,10.0,West,15.0,-,N/A,,Mostly Cloudy,260,2012-11-08 21:24:00
1:28 PM,53.6,51.8,94,29.89,10.0,West,13.8,-,N/A,Rain,Light Rain,270,2012-11-08 21:28:00
1:58 PM,53.4,50.2,89,29.90,10.0,West,10.4,-,0.02,Rain,Light Rain,260,2012-11-08 21:58:00
2:16 PM,53.6,50.0,88,29.87,10.0,WSW,10.4,-,N/A,,Mostly Cloudy,240,2012-11-08 22:16:00
2:58 PM,54.0,49.6,85,29.89,10.0,WSW,13.8,-,0.00,,Mostly Cloudy,240,2012-11-08 22:58:00
3:58 PM,54.5,46.4,74,29.88,10.0,WSW,17.3,-,N/A,,Mostly Cloudy,250,2012-11-08 23:58:00
4:58 PM,53.2,44.4,72,29.88,10.0,West,15.0,-,N/A,,Overcast,260,2012-11-09 00:58:00
5:58 PM,50.2,41.0,71,29.88,10.0,WSW,13.8,-,N/A,,Clear,250,2012-11-09 01:58:00
6:58 PM,48.4,40.5,74,29.90,10.0,West,8.1,-,N/A,,Clear,260,2012-11-09 02:58:00
7:58 PM,46.8,40.5,79,29.88,10.0,SW,9.2,-,N/A,,Clear,230,2012-11-09 03:58:00
8:58 PM,45.1,40.6,84,29.90,10.0,SW,11.5,-,N/A,,Clear,230,2012-11-09 04:58:00
9:58 PM,42.8,39.2,87,29.91,10.0,WSW,5.8,-,N/A,,Clear,250,2012-11-09 05:58:00
10:58 PM,42.8,38.8,86,29.91,10.0,WSW,9.2,-,N/A,,Clear,240,2012-11-09 06:58:00
11:58 PM,41.9,38.1,86,29.90,10.0,West,4.6,-,N/A,,Clear,260,2012-11-09 07:58:00